Time;durP1;ratioP1;P1;durP2;ratioP2;P2;SDS_P1;SDS_P2;PMS_P1;PMS_P2;Temp;Humidity;BMP_temperature;BMP_pressure;BME280_temperature;BME280_humidity;BME280_pressure;Samples;Min_cycle;Max_cycle;Signal;HPM_P1;HPM_P2
2021/07/07 00:01:41;;;;;;;8.25;3.87;;;;;;;28.53;38.47;99426.19;4499620;31;33401;-78
2021/07/07 00:04:09;;;;;;;5.65;3.30;;;;;;;28.54;38.73;99424.28;4499894;31;34775;-72
2021/07/07 00:06:37;;;;;;;6.80;2.78;;;;;;;28.53;38.86;99434.44;4499380;31;34133;-78
2021/07/07 00:09:04;;;;;;;4.75;2.95;;;;;;;28.53;38.76;99433.59;4499536;31;33858;-72
2021/07/07 00:11:32;;;;;;;6.22;3.12;;;;;;;28.52;38.85;99426.47;4499580;31;33432;-77
2021/07/07 00:13:59;;;;;;;6.10;3.25;;;;;;;28.51;38.71;99428.41;4499343;31;33638;-78
2021/07/07 00:16:27;;;;;;;5.82;3.12;;;;;;;28.47;38.30;99428.09;4499420;31;33808;-73
2021/07/07 00:18:55;;;;;;;6.40;3.58;;;;;;;28.47;38.63;99430.03;4485272;31;34328;-74
2021/07/07 00:21:23;;;;;;;5.20;2.90;;;;;;;28.48;38.52;99428.94;4491667;31;34534;-67
2021/07/07 00:23:50;;;;;;;6.22;3.35;;;;;;;28.44;38.32;99427.81;4483679;32;34733;-78
2021/07/07 00:26:18;;;;;;;7.05;3.42;;;;;;;28.45;38.46;99430.31;4483490;32;35279;-70
2021/07/07 00:28:46;;;;;;;6.72;3.37;;;;;;;28.41;38.06;99431.13;4482188;32;33414;-75
2021/07/07 00:31:13;;;;;;;8.05;3.08;;;;;;;28.42;38.47;99419.03;4482416;32;34666;-72
2021/07/07 00:33:41;;;;;;;5.43;3.20;;;;;;;28.41;38.39;99415.47;4483437;32;34009;-75
2021/07/07 00:36:09;;;;;;;7.60;3.90;;;;;;;28.41;38.44;99429.19;4483249;32;34116;-79
2021/07/07 00:38:36;;;;;;;6.70;3.55;;;;;;;28.42;38.42;99424.53;4483407;32;33505;-72
2021/07/07 00:41:04;;;;;;;7.90;3.37;;;;;;;28.40;38.48;99430.28;4483424;32;34169;-78
2021/07/07 00:43:31;;;;;;;7.75;3.50;;;;;;;28.39;38.27;99428.63;4483411;32;33861;-73
2021/07/07 00:46:01;;;;;;;6.32;3.30;;;;;;;28.37;38.49;99422.59;4483252;32;34957;-79
2021/07/07 00:48:29;;;;;;;8.65;3.53;;;;;;;28.36;38.38;99422.88;4483435;32;34007;-78
2021/07/07 00:50:59;;;;;;;6.07;3.40;;;;;;;28.36;38.41;99420.13;4483159;32;34188;-77
2021/07/07 00:53:27;;;;;;;5.72;3.20;;;;;;;28.36;38.42;99423.69;4481927;32;34007;-79
2021/07/07 00:55:54;;;;;;;5.45;3.30;;;;;;;28.35;38.45;99427.53;4481786;32;34149;-73
2021/07/07 00:58:22;;;;;;;6.20;3.80;;;;;;;28.34;38.26;99434.09;4468787;32;34003;-77
2021/07/07 01:00:49;;;;;;;6.07;3.50;;;;;;;28.33;38.31;99423.34;4481808;32;33824;-78
2021/07/07 01:03:17;;;;;;;6.72;3.17;;;;;;;28.31;38.30;99431.03;4482071;32;33936;-73
2021/07/07 01:05:45;;;;;;;7.85;3.53;;;;;;;28.31;38.35;99434.63;4482859;32;34344;-78
2021/07/07 01:08:12;;;;;;;6.57;3.37;;;;;;;28.30;38.29;99421.13;4482976;32;33855;-79
2021/07/07 01:10:40;;;;;;;6.97;4.00;;;;;;;28.28;38.30;99420.59;4483038;32;34491;-75
2021/07/07 01:13:07;;;;;;;6.68;3.83;;;;;;;28.27;38.07;99428.00;4482725;32;33853;-79
2021/07/07 01:15:35;;;;;;;6.90;3.80;;;;;;;28.27;38.30;99419.78;4482713;32;34695;-77
2021/07/07 01:18:03;;;;;;;8.30;4.12;;;;;;;28.26;38.32;99417.28;4481495;32;35155;-77
2021/07/07 01:20:31;;;;;;;6.90;3.62;;;;;;;28.26;38.28;99417.28;4483298;31;34342;-79
2021/07/07 01:22:58;;;;;;;7.32;3.62;;;;;;;28.25;38.23;99419.19;4498507;31;34743;-77
2021/07/07 01:25:26;;;;;;;5.43;3.50;;;;;;;28.26;38.29;99418.12;4498526;31;34051;-71
2021/07/07 01:27:54;;;;;;;7.30;3.97;;;;;;;28.23;38.34;99419.47;4484103;31;34786;-80
2021/07/07 01:30:22;;;;;;;5.57;3.60;;;;;;;28.21;38.03;99418.94;4498523;31;33148;-72
2021/07/07 01:32:50;;;;;;;7.10;3.90;;;;;;;28.21;38.32;99418.94;4498449;31;34734;-80
2021/07/07 01:35:17;;;;;;;5.20;3.67;;;;;;;28.19;38.06;99415.63;4498279;31;33546;-81
2021/07/07 01:37:45;;;;;;;5.85;3.90;;;;;;;28.18;38.25;99416.72;4498680;31;33816;-80
2021/07/07 01:40:14;;;;;;;5.93;3.60;;;;;;;28.19;38.34;99423.03;4483902;31;33377;-79
2021/07/07 01:42:42;;;;;;;7.68;3.70;;;;;;;28.19;38.43;99425.78;4485040;31;35320;-80
2021/07/07 01:45:10;;;;;;;5.30;3.67;;;;;;;28.18;38.02;99424.13;4500616;31;34536;-79
2021/07/07 01:47:37;;;;;;;11.50;4.25;;;;;;;28.17;38.34;99428.78;4486551;31;34669;-80
2021/07/07 01:50:06;;;;;;;6.57;4.07;;;;;;;28.17;38.38;99430.72;4486362;31;33899;-81
2021/07/07 01:52:33;;;;;;;5.32;3.75;;;;;;;28.16;38.22;99432.59;4500506;31;34077;-80
2021/07/07 01:55:03;;;;;;;5.37;3.60;;;;;;;28.17;38.44;99438.94;4500283;31;34082;-80
2021/07/07 01:57:43;;;;;;;6.62;4.12;;;;;;;28.15;38.30;99436.44;4500330;31;33907;-77
2021/07/07 02:00:16;;;;;;;7.93;4.10;;;;;;;28.14;37.92;99436.72;4500544;31;33124;-80
2021/07/07 02:02:44;;;;;;;6.50;3.95;;;;;;;28.13;38.16;99437.81;4500503;31;34191;-80
2021/07/07 02:05:13;;;;;;;5.60;4.03;;;;;;;28.12;38.39;99439.75;4500397;31;34245;-79
2021/07/07 02:07:41;;;;;;;6.68;4.20;;;;;;;28.11;38.06;99443.53;4500239;31;33986;-78
2021/07/07 02:10:11;;;;;;;8.63;4.20;;;;;;;28.11;38.43;99449.03;4500551;31;34464;-80
2021/07/07 02:12:38;;;;;;;9.55;4.50;;;;;;;28.10;38.46;99436.41;4500487;31;34617;-77
2021/07/07 02:15:13;;;;;;;7.03;4.07;;;;;;;28.11;38.15;99438.06;4500212;31;34098;-70
2021/07/07 02:17:41;;;;;;;7.32;4.12;;;;;;;28.08;38.40;99443.28;4500409;31;34333;-78
2021/07/07 02:20:09;;;;;;;7.18;4.43;;;;;;;28.09;38.32;99440.25;4486455;31;34285;-81
2021/07/07 02:22:37;;;;;;;6.05;3.50;;;;;;;28.07;38.33;99436.97;4484604;31;33745;-70
2021/07/07 02:25:10;;;;;;;6.53;3.97;;;;;;;28.06;38.19;99432.56;4484629;32;35204;-82
2021/07/07 02:27:38;;;;;;;9.52;4.50;;;;;;;28.06;38.30;99439.97;4484703;32;34666;-79
2021/07/07 02:30:09;;;;;;;5.70;3.95;;;;;;;28.05;38.29;99444.63;4484431;32;34880;-80
2021/07/07 02:32:37;;;;;;;9.68;4.28;;;;;;;28.04;38.48;99440.22;4484411;32;34681;-79
2021/07/07 02:35:09;;;;;;;5.15;3.70;;;;;;;28.04;38.26;99444.91;4484318;32;34050;-72
2021/07/07 02:37:37;;;;;;;7.37;3.92;;;;;;;28.03;38.38;99444.06;4484428;32;33989;-79
2021/07/07 02:40:06;;;;;;;5.45;3.70;;;;;;;28.03;38.49;99446.81;4483199;32;33272;-79
2021/07/07 02:42:33;;;;;;;5.45;3.70;;;;;;;28.02;38.62;99438.84;4470153;32;33978;-80
2021/07/07 02:45:01;;;;;;;5.97;4.22;;;;;;;28.02;38.44;99445.16;4483428;32;33961;-79
2021/07/07 02:47:28;;;;;;;8.82;4.00;;;;;;;28.00;38.47;99438.28;4483190;32;34017;-79
2021/07/07 02:49:56;;;;;;;5.35;3.50;;;;;;;28.00;38.48;99438.28;4484252;32;34766;-72
2021/07/07 02:52:24;;;;;;;6.70;3.70;;;;;;;27.99;38.49;99451.19;4484311;32;34118;-80
2021/07/07 02:54:52;;;;;;;7.72;3.78;;;;;;;28.00;38.64;99441.03;4483628;32;35159;-77
2021/07/07 02:57:19;;;;;;;5.72;3.67;;;;;;;28.00;38.60;99452.00;4483797;32;34656;-78
2021/07/07 02:59:47;;;;;;;6.12;4.12;;;;;;;27.98;38.42;99446.78;4484356;32;34057;-79
2021/07/07 03:02:14;;;;;;;9.93;4.37;;;;;;;27.96;38.61;99451.69;4484278;32;34348;-78
2021/07/07 03:04:42;;;;;;;8.15;4.10;;;;;;;27.97;38.68;99451.44;4484126;32;34879;-78
2021/07/07 03:07:10;;;;;;;7.40;4.55;;;;;;;27.97;38.61;99453.34;4484262;32;33949;-72
2021/07/07 03:09:37;;;;;;;9.95;4.60;;;;;;;27.98;38.61;99457.75;4470049;32;32786;-75
2021/07/07 03:12:04;;;;;;;6.60;3.97;;;;;;;27.96;38.55;99455.25;4484359;32;34402;-78
2021/07/07 03:14:32;;;;;;;9.15;4.45;;;;;;;27.95;38.66;99456.34;4484188;32;34200;-75
2021/07/07 03:16:59;;;;;;;8.25;4.37;;;;;;;27.94;38.64;99451.16;4484119;32;34636;-77
2021/07/07 03:19:27;;;;;;;7.93;3.80;;;;;;;27.93;38.55;99455.81;4484055;32;33419;-76
2021/07/07 03:21:55;;;;;;;5.90;4.20;;;;;;;27.93;38.70;99464.03;4484027;32;34828;-78
2021/07/07 03:24:22;;;;;;;6.85;4.28;;;;;;;27.91;38.63;99465.38;4484326;32;33588;-78
2021/07/07 03:26:49;;;;;;;8.75;4.50;;;;;;;27.91;38.86;99463.47;4483969;32;34000;-78
2021/07/07 03:29:17;;;;;;;9.70;4.28;;;;;;;27.92;38.65;99475.25;4484176;32;33392;-76
2021/07/07 03:31:47;;;;;;;8.45;4.00;;;;;;;27.91;38.74;99471.69;4484006;32;34699;-78
2021/07/07 03:34:14;;;;;;;6.70;4.22;;;;;;;27.91;38.64;99468.94;4484030;32;34654;-77
2021/07/07 03:36:42;;;;;;;7.93;4.55;;;;;;;27.91;38.85;99474.44;4484064;32;34186;-70
2021/07/07 03:39:09;;;;;;;5.97;3.75;;;;;;;27.90;38.86;99471.97;4483997;32;34406;-73
2021/07/07 03:41:38;;;;;;;6.47;3.90;;;;;;;27.88;38.71;99483.16;4484153;32;34793;-72
2021/07/07 03:44:06;;;;;;;8.30;4.40;;;;;;;27.90;38.89;99477.44;4484064;32;33577;-70
2021/07/07 03:46:33;;;;;;;10.32;4.10;;;;;;;27.91;39.04;99481.84;4483742;32;33856;-78
2021/07/07 03:49:01;;;;;;;8.85;4.75;;;;;;;27.90;38.97;99491.16;4484011;32;33639;-70
2021/07/07 03:51:29;;;;;;;9.10;4.62;;;;;;;27.88;38.84;99487.84;4483876;32;34795;-78
2021/07/07 03:53:56;;;;;;;10.38;4.37;;;;;;;27.88;39.03;99496.06;4483624;32;33621;-79
2021/07/07 03:56:24;;;;;;;9.50;4.90;;;;;;;27.89;39.10;99484.84;4493917;31;34877;-73
2021/07/07 03:58:51;;;;;;;7.80;4.55;;;;;;;27.87;38.75;99489.75;4499542;31;33849;-78
2021/07/07 04:01:19;;;;;;;9.73;5.05;;;;;;;27.87;38.84;99499.91;4499766;31;34977;-71
2021/07/07 04:03:47;;;;;;;7.22;4.30;;;;;;;27.88;38.92;99490.56;4499654;31;34290;-73
2021/07/07 04:06:14;;;;;;;9.32;5.00;;;;;;;27.87;38.95;99497.16;4499478;31;33843;-76
2021/07/07 04:08:41;;;;;;;9.25;4.40;;;;;;;27.87;39.07;99497.16;4499419;31;34425;-79
2021/07/07 04:11:09;;;;;;;7.93;4.30;;;;;;;27.89;39.15;99500.47;4499509;31;33880;-78
2021/07/07 04:13:37;;;;;;;9.68;4.53;;;;;;;27.87;39.20;99489.75;4499425;31;34063;-73
2021/07/07 04:16:04;;;;;;;6.35;4.30;;;;;;;27.88;39.26;99501.53;4499272;31;33970;-76
2021/07/07 04:18:32;;;;;;;10.27;4.37;;;;;;;27.87;39.25;99502.62;4499433;31;33072;-77
2021/07/07 04:21:00;;;;;;;7.97;4.65;;;;;;;27.88;39.24;99498.81;4494398;31;33634;-79
2021/07/07 04:23:27;;;;;;;11.70;5.20;;;;;;;27.88;39.25;99498.81;4483405;32;35206;-70
2021/07/07 04:25:55;;;;;;;7.32;4.65;;;;;;;27.87;39.30;99497.16;4483663;32;33561;-76
2021/07/07 04:28:22;;;;;;;6.85;4.53;;;;;;;27.86;39.36;99493.59;4483870;32;33186;-70
2021/07/07 04:30:51;;;;;;;7.45;4.28;;;;;;;27.88;39.43;99496.06;4483437;32;33838;-72
2021/07/07 04:33:19;;;;;;;7.30;4.62;;;;;;;27.88;39.51;99501.53;4483510;32;35081;-70
2021/07/07 04:35:46;;;;;;;11.05;4.82;;;;;;;27.88;39.49;99507.03;4483312;32;34733;-73
2021/07/07 04:38:19;;;;;;;6.60;4.60;;;;;;;27.88;39.66;99509.78;4483173;32;33955;-79
2021/07/07 04:40:47;;;;;;;7.40;4.90;;;;;;;27.87;39.87;99506.22;4483598;32;34182;-78
2021/07/07 04:43:14;;;;;;;8.13;5.00;;;;;;;27.88;40.09;99507.84;4483579;32;34015;-72
2021/07/07 04:45:42;;;;;;;8.90;5.03;;;;;;;27.89;40.40;99511.44;4483122;32;34794;-81
2021/07/07 04:48:09;;;;;;;10.07;4.60;;;;;;;27.88;40.44;99505.09;4483278;32;32710;-71
2021/07/07 04:50:37;;;;;;;8.60;5.03;;;;;;;27.90;40.39;99504.87;4483556;32;34931;-77
2021/07/07 04:53:04;;;;;;;7.68;4.90;;;;;;;27.90;40.35;99502.12;4482973;32;35126;-80
2021/07/07 04:55:32;;;;;;;8.52;5.28;;;;;;;27.90;40.53;99507.59;4487437;31;33870;-81
2021/07/07 04:57:59;;;;;;;7.15;4.85;;;;;;;27.91;40.58;99509.25;4498822;31;34195;-79
2021/07/07 05:00:27;;;;;;;8.52;4.80;;;;;;;27.92;40.59;99513.63;4498618;31;34646;-79
2021/07/07 05:02:54;;;;;;;9.85;5.25;;;;;;;27.92;40.62;99510.91;4498922;31;34298;-78
2021/07/07 05:05:22;;;;;;;8.77;4.97;;;;;;;27.92;40.60;99510.91;4498988;31;35030;-79
2021/07/07 05:07:50;;;;;;;8.10;4.68;;;;;;;27.93;40.69;99518.03;4498848;31;34544;-79
2021/07/07 05:10:19;;;;;;;10.32;4.68;;;;;;;27.93;40.91;99518.88;4498788;31;33546;-79
2021/07/07 05:12:46;;;;;;;8.00;4.90;;;;;;;27.94;40.95;99519.72;4498501;31;34106;-79
2021/07/07 05:15:14;;;;;;;7.18;4.90;;;;;;;27.95;40.93;99515.88;4484434;31;35020;-77
2021/07/07 05:17:43;;;;;;;8.75;5.07;;;;;;;27.95;40.94;99513.13;4499536;31;33729;-79
2021/07/07 05:20:11;;;;;;;9.50;4.60;;;;;;;27.96;40.91;99518.34;4473100;31;33473;-70
2021/07/07 05:22:40;;;;;;;7.57;4.53;;;;;;;27.98;40.89;99523.56;4483595;31;33963;-78
2021/07/07 05:25:08;;;;;;;11.80;4.82;;;;;;;28.00;40.94;99523.31;4485576;31;34145;-77
2021/07/07 05:27:35;;;;;;;11.77;5.32;;;;;;;27.99;41.00;99519.75;4500189;31;33197;-77
2021/07/07 05:30:05;;;;;;;11.10;5.00;;;;;;;28.00;41.04;99524.12;4500527;31;33883;-77
2021/07/07 05:32:33;;;;;;;10.75;4.35;;;;;;;28.00;41.06;99523.31;4500767;31;34319;-72
2021/07/07 05:35:01;;;;;;;9.60;5.05;;;;;;;28.03;40.98;99528.28;4500670;31;34364;-72
2021/07/07 05:37:29;;;;;;;8.77;4.80;;;;;;;28.03;41.18;99531.00;4473401;31;33456;-68
2021/07/07 05:39:56;;;;;;;9.13;4.55;;;;;;;28.03;41.14;99525.53;4500433;31;34683;-72
2021/07/07 05:42:24;;;;;;;10.32;5.55;;;;;;;28.04;41.14;99527.19;4500239;31;34926;-72
2021/07/07 05:44:54;;;;;;;11.60;4.87;;;;;;;28.05;41.13;99537.06;4500525;31;33685;-74
2021/07/07 05:47:23;;;;;;;10.98;4.60;;;;;;;28.05;41.12;99537.06;4500494;31;32656;-70
2021/07/07 05:49:55;;;;;;;10.57;4.80;;;;;;;28.05;40.93;99537.88;4500185;31;34993;-69
2021/07/07 05:52:24;;;;;;;11.07;4.70;;;;;;;28.09;40.70;99546.41;4500217;31;34107;-73
2021/07/07 05:54:52;;;;;;;13.23;5.15;;;;;;;28.07;41.01;99549.44;4500373;31;34046;-73
2021/07/07 05:57:24;;;;;;;15.20;5.20;;;;;;;28.07;41.05;99549.44;4485997;31;33374;-72
2021/07/07 05:59:52;;;;;;;8.90;4.90;;;;;;;28.08;41.09;99559.28;4500320;31;33992;-71
2021/07/07 06:02:19;;;;;;;11.02;5.03;;;;;;;28.09;41.11;99551.87;4500208;31;34062;-73
2021/07/07 06:04:48;;;;;;;9.70;5.20;;;;;;;28.08;41.11;99548.31;4500335;31;34155;-72
2021/07/07 06:07:15;;;;;;;10.13;5.00;;;;;;;28.09;41.10;99560.94;4494379;31;33523;-72
2021/07/07 06:09:43;;;;;;;12.15;5.03;;;;;;;28.10;41.04;99562.59;4498061;31;34293;-71
2021/07/07 06:12:10;;;;;;;10.27;4.80;;;;;;;28.10;41.00;99557.09;4500638;31;34870;-73
2021/07/07 06:14:38;;;;;;;15.68;5.00;;;;;;;28.11;40.93;99566.97;4500460;31;34964;-73
2021/07/07 06:17:05;;;;;;;10.88;4.50;;;;;;;28.11;40.83;99566.16;4500123;31;34003;-72
2021/07/07 06:19:34;;;;;;;10.25;5.25;;;;;;;28.12;40.83;99571.41;4500186;31;33431;-73
2021/07/07 06:22:01;;;;;;;9.50;4.95;;;;;;;28.12;40.86;99581.53;4500477;31;35445;-72
2021/07/07 06:24:29;;;;;;;12.70;5.15;;;;;;;28.13;40.86;99583.19;4500452;31;33667;-72
2021/07/07 06:26:56;;;;;;;6.70;4.85;;;;;;;28.14;40.91;99579.34;4500174;31;33178;-73
2021/07/07 06:29:24;;;;;;;9.30;4.85;;;;;;;28.17;40.77;99585.16;4499222;31;33877;-71
2021/07/07 06:31:51;;;;;;;10.63;5.25;;;;;;;28.18;40.80;99586.78;4500191;31;34799;-72
2021/07/07 06:34:19;;;;;;;12.73;5.22;;;;;;;28.16;40.95;99586.22;4500105;31;34336;-71
2021/07/07 06:36:46;;;;;;;11.68;4.70;;;;;;;28.17;40.96;99585.16;4500130;31;34691;-72
2021/07/07 06:39:14;;;;;;;11.90;4.97;;;;;;;28.17;40.96;99585.16;4499916;31;34149;-70
2021/07/07 06:41:42;;;;;;;13.05;5.07;;;;;;;28.17;40.90;99590.63;4500122;31;34066;-72
2021/07/07 06:44:09;;;;;;;9.68;4.93;;;;;;;28.18;40.79;99584.06;4500102;31;34805;-72
2021/07/07 06:46:37;;;;;;;10.52;4.45;;;;;;;28.19;40.82;99580.22;4500008;31;33829;-71
2021/07/07 06:49:04;;;;;;;11.60;4.90;;;;;;;28.20;40.92;99592.00;4485696;31;33891;-70
2021/07/07 06:51:32;;;;;;;9.48;4.90;;;;;;;28.20;41.01;99587.34;4499986;31;34111;-67
2021/07/07 06:53:59;;;;;;;11.10;5.05;;;;;;;28.21;41.02;99590.91;4499982;31;33889;-71
2021/07/07 06:56:27;;;;;;;9.75;5.45;;;;;;;28.22;40.97;99579.69;4499972;31;33102;-71
2021/07/07 06:58:54;;;;;;;9.60;5.68;;;;;;;28.22;41.01;99585.19;4485607;31;33544;-71
2021/07/07 07:01:22;;;;;;;8.15;5.50;;;;;;;28.23;41.08;99580.53;4499665;31;33794;-70
2021/07/07 07:03:49;;;;;;;12.27;5.50;;;;;;;28.21;41.15;99589.03;4487012;31;34152;-70
2021/07/07 07:06:17;;;;;;;12.50;5.20;;;;;;;28.22;41.08;99587.09;4484058;32;33747;-69
2021/07/07 07:08:44;;;;;;;12.20;5.20;;;;;;;28.22;41.01;99582.44;4483739;32;34616;-69
2021/07/07 07:11:17;;;;;;;9.35;5.35;;;;;;;28.24;40.93;99590.41;4483816;32;34067;-69
2021/07/07 07:13:45;;;;;;;9.40;5.22;;;;;;;28.27;41.01;99591.81;4483984;32;33702;-68
2021/07/07 07:16:13;;;;;;;10.88;5.28;;;;;;;28.27;40.98;99592.62;4482580;32;33028;-68
2021/07/07 07:18:41;;;;;;;8.82;4.85;;;;;;;28.30;40.95;99592.06;4483998;32;33973;-68
2021/07/07 07:21:08;;;;;;;9.13;5.00;;;;;;;28.31;40.99;99584.69;4482656;32;34816;-68
2021/07/07 07:23:36;;;;;;;8.48;5.10;;;;;;;28.31;40.98;99580.03;4483750;32;34657;-69
2021/07/07 07:26:03;;;;;;;9.38;4.65;;;;;;;28.34;41.04;99586.91;4484069;32;34352;-67
2021/07/07 07:28:31;;;;;;;8.65;4.47;;;;;;;28.36;41.10;99585.59;4483816;32;33617;-67
2021/07/07 07:30:58;;;;;;;17.08;5.60;;;;;;;28.35;41.16;99586.69;4485511;31;34309;-69
2021/07/07 07:33:26;;;;;;;21.80;6.00;;;;;;;28.36;41.40;99584.75;4483357;32;33851;-71
2021/07/07 07:35:53;;;;;;;16.83;6.03;;;;;;;28.35;41.49;99586.69;4469404;32;35025;-71
2021/07/07 07:38:30;;;;;;;20.65;5.60;;;;;;;28.38;41.39;99583.38;4483712;32;32884;-70
2021/07/07 07:40:57;;;;;;;18.60;6.20;;;;;;;28.38;41.48;99597.09;4469945;32;33952;-75
2021/07/07 07:43:25;;;;;;;15.55;6.10;;;;;;;28.38;41.42;99585.31;4483933;32;33625;-69
2021/07/07 07:45:55;;;;;;;14.52;6.47;;;;;;;28.39;41.32;99585.03;4469882;32;33417;-71
2021/07/07 07:48:22;;;;;;;;;;;;;;;28.39;41.43;99587.78;4470337;32;34636;-70
2021/07/07 07:50:50;;;;;;;19.65;5.85;;;;;;;28.52;41.04;99589.22;4483661;32;35116;-69
2021/07/07 07:53:18;;;;;;;22.50;5.87;;;;;;;28.45;41.23;99585.91;4483647;32;34880;-67
2021/07/07 07:55:45;;;;;;;15.57;5.93;;;;;;;28.42;41.27;99591.94;4456997;32;34377;-71
2021/07/07 07:58:17;;;;;;;19.48;5.90;;;;;;;28.42;41.11;99590.00;4469485;32;34641;-71
2021/07/07 08:00:48;;;;;;;29.17;6.20;;;;;;;28.42;41.27;99589.19;4484250;32;33695;-68
2021/07/07 08:03:16;;;;;;;17.20;6.60;;;;;;;28.42;41.31;99590.00;4483882;32;33965;-71
2021/07/07 08:05:43;;;;;;;17.87;5.50;;;;;;;28.44;41.39;99600.72;4483113;32;33435;-68
2021/07/07 08:08:11;;;;;;;17.00;5.97;;;;;;;28.45;41.33;99594.16;4469476;32;33973;-69
2021/07/07 08:10:39;;;;;;;22.55;6.57;;;;;;;28.45;41.39;99585.91;4483822;32;34142;-69
2021/07/07 08:13:06;;;;;;;15.48;5.60;;;;;;;28.46;41.39;99596.63;4469717;32;33636;-72
2021/07/07 08:15:34;;;;;;;20.83;5.60;;;;;;;28.48;41.39;99593.59;4483680;32;33111;-72
2021/07/07 08:18:02;;;;;;;15.65;5.53;;;;;;;28.48;41.41;99602.66;4483297;32;34673;-68
2021/07/07 08:20:30;;;;;;;16.50;5.57;;;;;;;28.50;41.31;99598.84;4469678;32;33896;-68
2021/07/07 08:22:57;;;;;;;13.52;5.60;;;;;;;28.51;41.28;99606.81;4483743;32;33546;-68
2021/07/07 08:25:25;;;;;;;16.87;5.82;;;;;;;28.53;41.24;99603.78;4483414;32;33444;-69
2021/07/07 08:27:54;;;;;;;16.17;5.72;;;;;;;28.55;41.19;99609.84;4483542;32;33673;-68
2021/07/07 08:30:21;;;;;;;18.30;6.03;;;;;;;28.56;41.22;99601.34;4469258;32;34850;-68
2021/07/07 08:32:49;;;;;;;12.57;5.78;;;;;;;28.55;41.23;99599.69;4483344;32;33880;-69
2021/07/07 08:35:18;;;;;;;16.35;5.82;;;;;;;28.55;41.22;99607.94;4469440;32;33481;-68
2021/07/07 08:37:45;;;;;;;18.27;6.57;;;;;;;28.56;41.23;99608.75;4483471;32;33875;-68
2021/07/07 08:40:14;;;;;;;15.63;5.93;;;;;;;28.55;41.25;99605.19;4468897;32;33935;-68
2021/07/07 08:42:42;;;;;;;16.67;5.78;;;;;;;28.55;41.25;99602.44;4484898;31;34041;-68
2021/07/07 08:45:11;;;;;;;12.43;5.57;;;;;;;28.55;41.25;99607.94;4499150;31;33634;-68
2021/07/07 08:47:41;;;;;;;11.25;5.78;;;;;;;28.55;41.24;99605.19;4499041;31;33989;-68
2021/07/07 08:50:09;;;;;;;;;;;;;;;28.56;41.22;99606.81;4499363;31;34050;-67
2021/07/07 08:52:38;;;;;;;12.85;5.80;;;;;;;28.68;40.98;99603.88;4485041;31;34025;-68
2021/07/07 08:55:11;;;;;;;14.93;5.55;;;;;;;28.59;41.15;99592.59;4500857;31;33195;-68
2021/07/07 08:57:42;;;;;;;14.95;6.15;;;;;;;28.57;41.25;99605.72;4500816;31;34004;-68
2021/07/07 09:00:10;;;;;;;14.82;6.12;;;;;;;28.57;41.38;99610.41;4500907;31;34020;-68
2021/07/07 09:02:51;;;;;;;14.27;5.95;;;;;;;28.57;41.37;99616.72;4485073;31;35082;-68
2021/07/07 09:05:20;;;;;;;13.65;5.93;;;;;;;28.57;41.37;99619.47;4487315;31;33523;-68
2021/07/07 09:07:48;;;;;;;14.43;6.22;;;;;;;28.57;41.40;99615.88;4486493;31;34752;-68
2021/07/07 09:10:30;;;;;;;11.27;5.68;;;;;;;28.56;41.40;99617.81;4500936;31;34052;-68
2021/07/07 09:13:12;;;;;;;15.23;6.18;;;;;;;28.60;41.36;99604.37;4485110;31;33895;-68
2021/07/07 09:15:39;;;;;;;10.35;5.60;;;;;;;28.61;41.31;99614.28;4485450;32;34257;-68
2021/07/07 09:18:07;;;;;;;13.98;6.15;;;;;;;28.59;41.35;99613.72;4470825;32;33437;-68
2021/07/07 09:20:38;;;;;;;11.02;5.75;;;;;;;28.59;41.38;99613.72;4470767;31;33773;-68
2021/07/07 09:23:25;;;;;;;13.50;5.55;;;;;;;28.60;41.33;99623.59;4471200;32;34181;-68
2021/07/07 09:26:04;;;;;;;13.00;5.80;;;;;;;28.62;41.29;99618.66;4485950;31;34158;-68
2021/07/07 09:28:35;;;;;;;11.57;5.50;;;;;;;28.63;41.29;99614.81;4484965;31;32917;-67
2021/07/07 09:31:37;;;;;;;9.77;5.28;;;;;;;28.62;41.31;99607.69;4500508;31;33985;-67
2021/07/07 09:34:22;;;;;;;10.32;5.82;;;;;;;28.64;41.32;99613.75;4500593;31;34086;-68
2021/07/07 09:36:54;;;;;;;12.15;6.15;;;;;;;28.64;41.27;99617.31;4482844;32;33402;-68
2021/07/07 09:39:22;;;;;;;9.32;5.53;;;;;;;28.63;41.29;99609.31;4471108;32;34161;-68
2021/07/07 09:41:50;;;;;;;8.23;5.40;;;;;;;28.64;41.25;99611.00;4470667;32;34195;-67
2021/07/07 09:44:18;;;;;;;11.90;5.82;;;;;;;28.65;41.22;99612.66;4485024;32;33631;-68
2021/07/07 09:46:46;;;;;;;12.15;6.00;;;;;;;28.65;41.31;99610.72;4473018;31;33533;-65
2021/07/07 09:49:14;;;;;;;9.45;5.57;;;;;;;28.63;41.35;99615.66;4500723;31;33576;-70
2021/07/07 09:51:49;;;;;;;13.38;5.72;;;;;;;28.64;41.32;99611.00;4500555;31;34909;-69
2021/07/07 09:54:19;;;;;;;11.43;5.80;;;;;;;28.64;41.39;99609.06;4500606;31;34864;-69
2021/07/07 09:56:47;;;;;;;14.13;6.10;;;;;;;28.65;41.25;99610.72;4497559;31;34300;-67
2021/07/07 09:59:14;;;;;;;11.65;5.30;;;;;;;28.66;41.29;99617.03;4484395;32;34299;-69
2021/07/07 10:01:44;;;;;;;12.02;5.80;;;;;;;28.66;41.26;99615.13;4484866;32;34157;-67
2021/07/07 10:04:16;;;;;;;8.60;5.12;;;;;;;28.64;41.34;99606.34;4470662;32;33878;-69
2021/07/07 10:06:44;;;;;;;11.65;6.05;;;;;;;28.66;41.27;99606.06;4472138;31;34149;-71
2021/07/07 10:09:11;;;;;;;12.57;5.65;;;;;;;28.66;41.17;99603.31;4498074;31;33874;-69
2021/07/07 10:11:39;;;;;;;11.52;5.60;;;;;;;28.66;41.18;99601.38;4476012;31;33563;-68
2021/07/07 10:14:11;;;;;;;11.25;5.53;;;;;;;28.66;41.21;99606.06;4473050;31;33254;-69
2021/07/07 10:16:39;;;;;;;8.52;5.57;;;;;;;28.65;41.21;99607.97;4485006;31;33494;-70
2021/07/07 10:19:06;;;;;;;8.57;5.62;;;;;;;28.66;41.17;99597.81;4484922;31;34665;-68
2021/07/07 10:21:34;;;;;;;10.00;5.72;;;;;;;28.65;41.21;99598.91;4486285;31;34134;-70
2021/07/07 10:24:02;;;;;;;8.45;5.28;;;;;;;28.65;41.14;99602.50;4500289;31;34778;-69
2021/07/07 10:26:29;;;;;;;11.85;4.90;;;;;;;28.65;41.11;99601.66;4500304;31;33587;-70
2021/07/07 10:28:57;;;;;;;9.57;5.00;;;;;;;28.65;41.14;99597.00;4472570;32;33638;-69
2021/07/07 10:31:52;;;;;;;12.80;5.55;;;;;;;28.64;41.08;99603.59;4470419;32;33640;-70
2021/07/07 10:34:21;;;;;;;8.35;5.00;;;;;;;28.68;41.02;99599.22;4471546;32;34048;-69
2021/07/07 10:36:49;;;;;;;11.43;5.35;;;;;;;28.64;41.05;99606.34;4487454;31;33160;-70
2021/07/07 10:39:16;;;;;;;9.63;5.00;;;;;;;28.64;41.08;99600.84;4485784;31;33461;-69
2021/07/07 10:41:47;;;;;;;8.98;5.35;;;;;;;28.64;41.04;99595.34;4500210;31;33974;-70
2021/07/07 10:44:24;;;;;;;8.32;5.12;;;;;;;28.63;41.04;99593.72;4500397;31;34559;-70
2021/07/07 10:47:12;;;;;;;11.25;5.05;;;;;;;28.67;41.00;99599.47;4499646;31;33032;-69
2021/07/07 10:49:54;;;;;;;9.10;4.87;;;;;;;28.68;40.98;99599.22;4485976;31;34359;-70
2021/07/07 10:52:32;;;;;;;8.88;5.07;;;;;;;28.66;41.06;99597.81;4500167;31;33963;-68
2021/07/07 10:55:01;;;;;;;8.73;5.32;;;;;;;28.68;41.05;99590.16;4485835;31;33564;-70
2021/07/07 10:57:36;;;;;;;10.75;5.15;;;;;;;28.65;41.12;99602.50;4480293;32;34152;-69
2021/07/07 11:00:30;;;;;;;9.60;5.30;;;;;;;28.66;41.11;99597.81;4471025;32;33573;-70
2021/07/07 11:03:35;;;;;;;8.98;5.18;;;;;;;28.70;41.08;99591.53;4484301;32;34935;-71
2021/07/07 11:06:23;;;;;;;10.02;4.95;;;;;;;28.71;41.10;99595.94;4486078;31;34046;-68
2021/07/07 11:08:51;;;;;;;7.32;4.90;;;;;;;28.69;41.19;99586.31;4499506;31;33714;-71
2021/07/07 11:11:23;;;;;;;9.77;4.68;;;;;;;28.67;41.23;99597.53;4500117;31;34695;-70
2021/07/07 11:13:53;;;;;;;10.73;5.22;;;;;;;28.67;41.28;99588.47;4500047;31;34007;-68
2021/07/07 11:16:30;;;;;;;8.45;5.43;;;;;;;28.69;41.24;99591.81;4482993;32;34820;-68
2021/07/07 11:18:58;;;;;;;8.10;5.03;;;;;;;28.70;41.25;99594.28;4484424;32;34405;-71
2021/07/07 11:21:29;;;;;;;7.07;4.40;;;;;;;28.71;41.25;99593.19;4484124;32;33968;-70
2021/07/07 11:23:56;;;;;;;9.25;5.12;;;;;;;28.69;41.29;99584.41;4470224;32;33961;-69
2021/07/07 11:26:24;;;;;;;8.73;4.80;;;;;;;28.71;41.28;99584.94;4460122;32;33913;-70
2021/07/07 11:28:52;;;;;;;8.50;5.03;;;;;;;28.72;41.30;99597.59;4469589;32;33505;-69
2021/07/07 11:31:19;;;;;;;8.55;4.70;;;;;;;28.72;41.31;99594.84;4484244;32;33967;-69
2021/07/07 11:34:01;;;;;;;10.45;5.72;;;;;;;28.73;41.35;99591.00;4484193;32;33568;-69
2021/07/07 11:36:28;;;;;;;9.73;4.30;;;;;;;28.76;41.32;99586.88;4483954;32;33847;-70
2021/07/07 11:39:07;;;;;;;10.23;4.68;;;;;;;28.75;41.35;99581.66;4470013;32;34277;-70
2021/07/07 11:41:34;;;;;;;8.55;4.47;;;;;;;28.77;41.33;99582.22;4457302;32;33616;-69